createdAt,value
2022-11-08T00:04:39.082Z,1.95
2022-11-08T00:07:24.161Z,1.50
2022-11-08T00:10:09.017Z,1.73
2022-11-08T00:12:54.129Z,1.40
2022-11-08T00:15:21.313Z,1.55
2022-11-08T00:17:47.853Z,1.20
2022-11-08T00:20:14.383Z,1.63
2022-11-08T00:22:40.861Z,1.60
2022-11-08T00:25:07.824Z,1.77
2022-11-08T00:27:34.358Z,1.08
2022-11-08T00:30:00.976Z,1.30
2022-11-08T00:32:27.486Z,1.65
2022-11-08T00:34:54.204Z,1.95
2022-11-08T00:37:22.924Z,1.63
2022-11-08T00:39:49.477Z,1.42
2022-11-08T00:42:16.101Z,1.13
2022-11-08T00:44:42.662Z,1.33
2022-11-08T00:47:09.479Z,1.60
2022-11-08T00:49:36.024Z,1.33
2022-11-08T00:52:02.807Z,1.10
2022-11-08T00:54:29.357Z,1.63
2022-11-08T00:56:55.832Z,1.92
2022-11-08T00:59:22.393Z,1.60
2022-11-08T01:01:49.042Z,1.10
2022-11-08T01:04:17.898Z,1.52
2022-11-08T01:06:44.820Z,1.42
2022-11-08T01:09:11.758Z,1.27
2022-11-08T01:11:39.761Z,1.20
2022-11-08T01:14:06.318Z,2.47
2022-11-08T01:16:34.159Z,1.52
2022-11-08T01:19:01.625Z,1.17
2022-11-08T01:21:29.685Z,1.83
2022-11-08T01:23:56.556Z,1.80
2022-11-08T01:26:26.617Z,2.03
2022-11-08T01:28:54.187Z,1.40
2022-11-08T01:31:26.161Z,1.70
2022-11-08T01:33:53.362Z,1.50
2022-11-08T01:36:22.597Z,1.73
2022-11-08T01:38:49.863Z,1.58
2022-11-08T01:41:18.618Z,1.27
2022-11-08T01:43:53.087Z,1.50
2022-11-08T01:46:19.552Z,1.63
2022-11-08T01:49:06.435Z,2.42
2022-11-08T01:51:41.481Z,2.85
2022-11-08T01:54:12.262Z,2.63
2022-11-08T01:56:40.302Z,1.50
2022-11-08T01:59:10.100Z,1.35
2022-11-08T02:01:36.997Z,2.00
2022-11-08T02:04:04.698Z,1.77
2022-11-08T02:06:33.932Z,2.67
2022-11-08T02:09:03.804Z,1.95
2022-11-08T02:11:30.831Z,3.50
2022-11-08T02:13:58.381Z,2.00
2022-11-08T02:16:24.880Z,2.92
2022-11-08T02:18:51.487Z,2.17
2022-11-08T02:21:28.525Z,2.13
2022-11-08T02:23:58.939Z,2.45
2022-11-08T02:26:30.144Z,1.48
2022-11-08T02:28:56.989Z,1.63
2022-11-08T02:31:23.592Z,2.25
2022-11-08T02:33:50.457Z,1.67
2022-11-08T02:36:21.353Z,2.03
2022-11-08T02:38:54.405Z,2.03
2022-11-08T02:41:21.087Z,2.28
2022-11-08T02:43:47.607Z,1.75
2022-11-08T02:46:14.422Z,1.17
2022-11-08T02:48:40.985Z,1.95
2022-11-08T02:51:07.471Z,2.05
2022-11-08T02:53:35.383Z,2.05
2022-11-08T02:56:01.948Z,2.25
2022-11-08T02:58:28.629Z,2.75
2022-11-08T03:00:55.259Z,2.35
2022-11-08T03:03:21.739Z,1.98
2022-11-08T03:05:48.306Z,2.13
2022-11-08T03:08:15.327Z,1.50
2022-11-08T03:10:42.117Z,1.38
2022-11-08T03:13:08.931Z,1.67
2022-11-08T03:15:35.751Z,1.58
2022-11-08T03:18:02.765Z,2.40
2022-11-08T03:20:32.706Z,1.42
2022-11-08T03:23:05.552Z,2.90
2022-11-08T03:25:32.578Z,1.95
2022-11-08T03:28:04.146Z,2.10
2022-11-08T03:30:30.881Z,2.38
2022-11-08T03:32:57.659Z,1.98
2022-11-08T03:35:24.348Z,1.95
2022-11-08T03:37:52.009Z,2.15
2022-11-08T03:40:18.971Z,1.77
2022-11-08T03:42:46.183Z,1.70
2022-11-08T03:45:13.229Z,2.30
2022-11-08T03:47:40.999Z,2.97
2022-11-08T03:50:07.971Z,1.63
2022-11-08T03:52:45.966Z,2.17
2022-11-08T03:55:15.997Z,2.20
2022-11-08T03:57:44.621Z,1.60
2022-11-08T04:00:13.033Z,1.85
2022-11-08T04:02:40.438Z,2.42
2022-11-08T04:05:09.107Z,2.75
2022-11-08T04:07:35.838Z,1.83
2022-11-08T04:10:04.229Z,2.22
2022-11-08T04:12:49.088Z,2.03
2022-11-08T04:15:18.954Z,2.30
2022-11-08T04:18:07.114Z,2.47
2022-11-08T04:20:52.492Z,2.85
2022-11-08T04:23:19.021Z,1.77
2022-11-08T04:25:45.655Z,1.40
2022-11-08T04:28:12.131Z,2.22
2022-11-08T04:30:38.792Z,2.15
2022-11-08T04:33:05.641Z,1.67
2022-11-08T04:35:32.372Z,1.60
2022-11-08T04:38:00.494Z,1.73
2022-11-08T04:40:28.007Z,2.20
2022-11-08T04:42:54.639Z,2.47
2022-11-08T04:45:21.273Z,2.50
2022-11-08T04:47:48.935Z,2.40
2022-11-08T04:50:15.847Z,2.15
2022-11-08T04:52:42.696Z,3.15
2022-11-08T04:55:09.777Z,2.50
2022-11-08T04:57:36.679Z,2.63
2022-11-08T05:00:04.167Z,1.73
2022-11-08T05:02:30.864Z,2.50
2022-11-08T05:04:57.832Z,2.45
2022-11-08T05:07:24.441Z,2.83
2022-11-08T05:09:51.058Z,3.05
2022-11-08T05:12:17.539Z,2.22
2022-11-08T05:14:44.097Z,3.05
2022-11-08T05:17:10.640Z,2.10
2022-11-08T05:19:55.809Z,1.90
2022-11-08T05:22:41.131Z,1.92
2022-11-08T05:25:08.427Z,2.25
2022-11-08T05:27:35.168Z,1.80
2022-11-08T05:30:02.019Z,2.08
2022-11-08T05:32:28.484Z,1.40
2022-11-08T05:34:55.027Z,2.33
2022-11-08T05:37:21.620Z,2.05
2022-11-08T05:39:48.174Z,1.60
2022-11-08T05:42:14.767Z,1.88
2022-11-08T05:44:41.312Z,2.25
2022-11-08T05:47:08.053Z,2.65
2022-11-08T05:49:34.593Z,2.90
2022-11-08T05:52:01.497Z,1.90
2022-11-08T05:54:28.000Z,2.33
2022-11-08T05:56:54.488Z,2.40
2022-11-08T05:59:21.154Z,3.63
2022-11-08T06:01:47.697Z,2.42
2022-11-08T06:04:14.274Z,2.40
2022-11-08T06:06:40.994Z,2.20
2022-11-08T06:09:07.514Z,2.42
2022-11-08T06:11:34.008Z,2.72
2022-11-08T06:14:00.525Z,2.65
2022-11-08T06:16:27.076Z,3.72
2022-11-08T06:18:53.685Z,2.85
2022-11-08T06:21:21.384Z,2.13
2022-11-08T06:23:48.048Z,2.45
2022-11-08T06:26:14.676Z,2.05
2022-11-08T06:28:41.531Z,1.95
2022-11-08T06:31:08.257Z,3.13
2022-11-08T06:33:35.267Z,2.35
2022-11-08T06:36:02.327Z,2.80
2022-11-08T06:38:29.653Z,1.95
2022-11-08T06:41:00.120Z,2.70
2022-11-08T06:43:27.209Z,2.63
2022-11-08T06:45:54.070Z,3.35
2022-11-08T06:48:20.581Z,2.95
2022-11-08T06:50:47.269Z,3.60
2022-11-08T06:53:14.906Z,2.35
2022-11-08T06:55:41.578Z,2.40
2022-11-08T06:58:08.094Z,2.50
2022-11-08T07:00:34.929Z,2.85
2022-11-08T07:03:03.696Z,3.05
2022-11-08T07:05:32.330Z,4.75
2022-11-08T07:08:00.121Z,3.20
2022-11-08T07:10:32.036Z,2.70
2022-11-08T07:13:04.735Z,2.28
2022-11-08T07:15:32.625Z,2.40
2022-11-08T07:18:01.767Z,2.92
2022-11-08T07:20:28.711Z,2.47
2022-11-08T07:22:56.798Z,2.97
2022-11-08T07:25:23.967Z,2.50
2022-11-08T07:27:50.694Z,1.90
2022-11-08T07:30:17.245Z,2.72
2022-11-08T07:32:43.743Z,2.13
2022-11-08T07:35:10.220Z,2.08
2022-11-08T07:37:36.687Z,2.65
2022-11-08T07:40:03.971Z,2.97
2022-11-08T07:42:43.817Z,2.13
2022-11-08T07:45:17.211Z,2.33
2022-11-08T07:47:43.732Z,2.67
2022-11-08T07:50:11.212Z,2.35
2022-11-08T07:52:37.731Z,2.85
2022-11-08T07:55:04.573Z,2.17
2022-11-08T07:57:31.358Z,3.03
2022-11-08T07:59:57.883Z,1.73
2022-11-08T08:02:24.529Z,1.98
2022-11-08T08:04:51.080Z,2.08
2022-11-08T08:07:18.125Z,2.33
2022-11-08T08:09:44.751Z,1.45
2022-11-08T08:12:11.402Z,1.63
2022-11-08T08:14:37.897Z,1.73
2022-11-08T08:17:04.380Z,3.05
2022-11-08T08:19:30.996Z,2.08
2022-11-08T08:21:57.493Z,1.90
2022-11-08T08:24:24.030Z,1.77
2022-11-08T08:26:50.656Z,1.63
2022-11-08T08:29:17.391Z,2.10
2022-11-08T08:31:44.034Z,2.20
2022-11-08T08:34:10.583Z,1.92
2022-11-08T08:36:37.121Z,1.70
2022-11-08T08:39:03.747Z,1.70
2022-11-08T08:41:30.363Z,1.75
2022-11-08T08:43:56.998Z,1.42
2022-11-08T08:46:23.806Z,1.92
2022-11-08T08:48:50.496Z,1.60
2022-11-08T08:51:17.057Z,2.17
2022-11-08T08:53:43.558Z,3.70
2022-11-08T08:56:10.130Z,1.55
2022-11-08T08:58:36.625Z,2.05
2022-11-08T09:03:51.801Z,2.15
2022-11-08T09:06:18.336Z,1.60
2022-11-08T09:08:44.923Z,2.15
2022-11-08T09:11:11.414Z,1.73
2022-11-08T09:13:37.994Z,1.17
2022-11-08T09:16:05.192Z,1.33
2022-11-08T09:18:32.376Z,1.65
2022-11-08T09:20:59.913Z,2.13
2022-11-08T09:23:26.841Z,2.00
2022-11-08T09:26:00.524Z,1.70
2022-11-08T09:28:31.303Z,1.88
2022-11-08T09:31:06.445Z,2.17
2022-11-08T09:33:33.559Z,2.35
2022-11-08T09:36:01.811Z,1.63
2022-11-08T09:38:28.886Z,2.10
2022-11-08T09:41:16.661Z,1.85
2022-11-08T09:43:58.710Z,2.17
2022-11-08T09:46:31.061Z,1.90
2022-11-08T09:49:01.755Z,1.92
2022-11-08T09:51:30.013Z,1.85
2022-11-08T09:53:59.615Z,2.20
2022-11-08T09:56:36.654Z,2.10
2022-11-08T09:59:37.266Z,2.05
2022-11-08T10:02:16.964Z,1.90
2022-11-08T10:04:49.118Z,2.38
2022-11-08T10:07:30.561Z,2.17
2022-11-08T10:10:06.153Z,1.13
2022-11-08T10:12:41.992Z,1.58
2022-11-08T10:15:17.661Z,1.27
2022-11-08T10:17:59.502Z,2.05
2022-11-08T10:20:43.972Z,1.83
2022-11-08T10:23:22.064Z,2.33
2022-11-08T10:26:16.776Z,2.30
2022-11-08T10:28:51.164Z,1.92
2022-11-08T10:31:19.841Z,2.10
2022-11-08T10:33:46.307Z,1.60
2022-11-08T10:36:22.362Z,1.52
2022-11-08T10:39:00.886Z,1.80
2022-11-08T10:41:39.507Z,1.55
2022-11-08T10:44:20.844Z,2.08
2022-11-08T10:46:49.756Z,1.52
2022-11-08T10:49:25.231Z,1.48
2022-11-08T10:51:56.265Z,1.27
2022-11-08T10:54:44.298Z,1.83
2022-11-08T10:57:24.022Z,2.30
2022-11-08T10:59:51.530Z,1.95
2022-11-08T11:02:35.402Z,1.98
2022-11-08T11:05:18.007Z,1.42
2022-11-08T11:08:04.611Z,1.83
2022-11-08T11:10:34.440Z,1.40
2022-11-08T11:13:04.902Z,1.95
2022-11-08T11:15:36.571Z,1.60
2022-11-08T11:18:04.313Z,1.95
2022-11-08T11:20:31.491Z,2.42
2022-11-08T11:23:01.600Z,1.52
2022-11-08T11:25:28.771Z,1.70
2022-11-08T11:28:00.625Z,2.72
2022-11-08T11:30:32.720Z,1.70
2022-11-08T11:32:59.232Z,1.48
2022-11-08T11:35:31.321Z,1.75
2022-11-08T11:38:00.617Z,1.38
2022-11-08T11:40:37.763Z,1.92
2022-11-08T11:43:36.392Z,2.00
2022-11-08T11:46:13.157Z,1.73
2022-11-08T11:48:47.150Z,1.63
2022-11-08T11:51:14.477Z,1.35
2022-11-08T11:53:47.399Z,2.50
2022-11-08T11:56:56.872Z,1.30
2022-11-08T11:59:32.213Z,2.08
2022-11-08T12:02:29.595Z,1.85
2022-11-08T12:05:05.224Z,1.20
2022-11-08T12:07:34.348Z,1.27
2022-11-08T12:10:03.617Z,1.55
2022-11-08T12:13:00.762Z,1.73
2022-11-08T12:15:48.628Z,1.27
2022-11-08T12:18:43.121Z,1.50
2022-11-08T12:21:15.037Z,1.20
2022-11-08T12:23:44.625Z,1.38
2022-11-08T12:26:42.722Z,1.17
2022-11-08T12:29:30.470Z,1.88
2022-11-08T12:32:06.038Z,1.77
2022-11-08T12:35:03.678Z,1.50
2022-11-08T12:37:38.906Z,1.88
2022-11-08T12:40:34.639Z,1.95
2022-11-08T12:43:26.026Z,2.40
2022-11-08T12:46:06.961Z,1.45
2022-11-08T12:48:57.607Z,1.65
2022-11-08T12:51:24.388Z,1.13
2022-11-08T12:53:53.985Z,2.50
2022-11-08T12:56:25.401Z,2.00
2022-11-08T12:58:54.332Z,1.67
2022-11-08T13:01:23.057Z,2.25
2022-11-08T13:03:49.702Z,1.33
2022-11-08T13:06:25.453Z,1.17
2022-11-08T13:09:24.026Z,1.80
2022-11-08T13:12:11.358Z,1.65
2022-11-08T13:14:41.260Z,1.67
2022-11-08T13:17:18.683Z,1.50
2022-11-08T13:19:48.654Z,1.85
2022-11-08T13:22:44.979Z,2.22
2022-11-08T13:25:11.508Z,1.50
2022-11-08T13:27:45.348Z,1.88
2022-11-08T13:30:11.882Z,1.60
2022-11-08T13:32:54.431Z,2.08
2022-11-08T13:35:41.442Z,1.50
2022-11-08T13:38:52.717Z,1.92
2022-11-08T13:41:22.589Z,1.27
2022-11-08T13:43:50.244Z,1.17
2022-11-08T13:46:31.962Z,1.63
2022-11-08T13:48:58.438Z,1.83
2022-11-08T13:51:32.211Z,1.30
2022-11-08T13:54:04.383Z,1.98
2022-11-08T13:56:40.508Z,2.58
2022-11-08T13:59:33.021Z,2.08
2022-11-08T14:02:10.649Z,1.75
2022-11-08T14:04:40.455Z,1.90
2022-11-08T14:07:27.289Z,1.85
2022-11-08T14:10:22.794Z,1.55
2022-11-08T14:13:03.513Z,2.03
2022-11-08T14:15:57.549Z,1.60
2022-11-08T14:18:27.886Z,2.30
2022-11-08T14:20:54.996Z,1.75
2022-11-08T14:23:40.615Z,2.38
2022-11-08T14:26:20.525Z,1.65
2022-11-08T14:28:48.053Z,1.67
2022-11-08T14:31:32.961Z,1.75
2022-11-08T14:34:01.050Z,1.15
2022-11-08T14:36:29.804Z,2.08
2022-11-08T14:39:03.823Z,2.22
2022-11-08T14:41:32.394Z,2.78
2022-11-08T14:44:01.774Z,1.63
2022-11-08T14:46:28.222Z,1.58
2022-11-08T14:48:56.712Z,1.42
2022-11-08T14:51:24.462Z,2.05
2022-11-08T14:53:56.565Z,1.40
2022-11-08T14:56:28.976Z,1.58
2022-11-08T14:58:56.049Z,1.83
2022-11-08T15:01:25.694Z,2.25
2022-11-08T15:03:58.454Z,2.15
2022-11-08T15:06:34.183Z,1.73
2022-11-08T15:09:02.639Z,1.40
2022-11-08T15:11:35.713Z,2.25
2022-11-08T15:14:06.183Z,1.73
2022-11-08T15:16:42.715Z,2.17
2022-11-08T15:19:44.435Z,2.03
2022-11-08T15:22:32.033Z,1.92
2022-11-08T15:25:17.270Z,1.75
2022-11-08T15:27:58.205Z,2.17
2022-11-08T15:30:30.449Z,2.08
2022-11-08T15:32:57.229Z,1.90
2022-11-08T15:35:33.545Z,2.08
2022-11-08T15:38:05.628Z,1.77
2022-11-08T15:40:36.129Z,2.65
2022-11-08T15:43:03.807Z,2.50
2022-11-08T15:45:33.086Z,1.85
2022-11-08T15:48:24.146Z,2.10
2022-11-08T15:50:50.727Z,1.90
2022-11-08T15:53:17.417Z,2.40
2022-11-08T15:56:01.501Z,2.50
2022-11-08T15:58:30.866Z,1.83
2022-11-08T16:01:00.028Z,2.95
2022-11-08T16:03:27.120Z,2.30
2022-11-08T16:05:53.869Z,2.80
2022-11-08T16:08:21.170Z,1.80
2022-11-08T16:10:50.942Z,2.28
2022-11-08T16:13:26.679Z,2.53
2022-11-08T16:15:53.434Z,3.20
2022-11-08T16:18:20.727Z,2.55
2022-11-08T16:20:47.832Z,2.97
2022-11-08T16:23:15.014Z,4.30
2022-11-08T16:25:52.959Z,2.55
2022-11-08T16:28:35.011Z,3.20
2022-11-08T16:31:02.920Z,2.78
2022-11-08T16:33:31.251Z,4.82
2022-11-08T16:36:03.723Z,3.38
2022-11-08T16:38:34.560Z,3.42
2022-11-08T16:41:01.512Z,3.28
2022-11-08T16:43:28.973Z,3.03
2022-11-08T16:46:05.280Z,2.80
2022-11-08T16:48:32.880Z,3.20
2022-11-08T16:51:04.658Z,2.70
2022-11-08T16:53:32.270Z,3.22
2022-11-08T16:55:58.884Z,3.17
2022-11-08T16:58:26.862Z,2.65
2022-11-08T17:00:53.762Z,2.65
2022-11-08T17:03:22.944Z,2.70
2022-11-08T17:05:49.529Z,2.33
2022-11-08T17:08:16.911Z,2.30
2022-11-08T17:10:44.228Z,2.72
2022-11-08T17:13:14.301Z,2.83
2022-11-08T17:15:41.714Z,2.95
2022-11-08T17:18:11.948Z,3.08
2022-11-08T17:20:39.113Z,3.03
2022-11-08T17:23:06.038Z,3.20
2022-11-08T17:25:32.552Z,4.15
2022-11-08T17:27:59.092Z,3.10
2022-11-08T17:33:13.108Z,3.40
2022-11-08T17:35:43.941Z,3.70
2022-11-08T17:38:11.261Z,3.70
2022-11-08T17:40:38.109Z,3.75
2022-11-08T17:43:04.686Z,4.60
2022-11-08T17:45:31.247Z,3.45
2022-11-08T17:47:57.749Z,4.53
2022-11-08T17:50:24.264Z,5.07
2022-11-08T17:52:54.232Z,4.13
2022-11-08T17:55:20.824Z,3.35
2022-11-08T17:57:47.369Z,4.47
2022-11-08T18:00:14.587Z,3.58
2022-11-08T18:02:41.077Z,3.75
2022-11-08T18:05:07.910Z,4.07
2022-11-08T18:07:34.661Z,3.88
2022-11-08T18:10:02.683Z,3.55
2022-11-08T18:12:31.110Z,3.75
2022-11-08T18:14:57.705Z,4.05
2022-11-08T18:17:24.283Z,3.58
2022-11-08T18:19:50.789Z,6.38
2022-11-08T18:22:17.420Z,4.72
2022-11-08T18:24:47.431Z,4.47
2022-11-08T18:27:16.414Z,4.43
2022-11-08T18:29:43.496Z,3.85
2022-11-08T18:32:10.150Z,4.65
2022-11-08T18:34:36.611Z,3.85
2022-11-08T18:37:03.107Z,4.10
2022-11-08T18:39:29.582Z,3.92
2022-11-08T18:41:56.064Z,4.32
2022-11-08T18:44:22.622Z,5.07
2022-11-08T18:46:49.111Z,4.93
2022-11-08T18:49:15.666Z,4.47
2022-11-08T18:51:42.523Z,4.88
2022-11-08T18:54:09.025Z,5.47
2022-11-08T18:56:35.791Z,5.22
2022-11-08T18:59:02.283Z,4.85
2022-11-08T19:01:29.040Z,4.68
2022-11-08T19:03:55.564Z,5.75
2022-11-08T19:06:22.078Z,6.10
2022-11-08T19:08:48.572Z,5.07
2022-11-08T19:11:15.292Z,5.63
2022-11-08T19:13:42.310Z,5.45
2022-11-08T19:16:13.401Z,6.65
2022-11-08T19:18:40.374Z,5.72
2022-11-08T19:21:20.098Z,5.88
2022-11-08T19:23:47.911Z,5.53
2022-11-08T19:26:17.370Z,5.68
2022-11-08T19:28:45.912Z,4.93
2022-11-08T19:31:14.649Z,6.18
2022-11-08T19:33:41.231Z,6.95
2022-11-08T19:36:12.356Z,5.65
2022-11-08T19:38:40.021Z,6.60
2022-11-08T19:41:15.101Z,5.30
2022-11-08T19:43:43.300Z,4.90
2022-11-08T19:46:28.827Z,5.28
2022-11-08T19:48:55.596Z,7.13
2022-11-08T19:51:24.048Z,5.60
2022-11-08T19:53:54.917Z,5.57
2022-11-08T19:56:29.209Z,4.72
2022-11-08T19:59:04.747Z,5.57
2022-11-08T20:01:40.119Z,6.03
2022-11-08T20:04:09.081Z,5.65
2022-11-08T20:06:36.253Z,6.38
2022-11-08T20:09:04.815Z,5.82
2022-11-08T20:11:35.822Z,5.57
2022-11-08T20:14:04.078Z,6.38
2022-11-08T20:16:35.838Z,6.55
2022-11-08T20:19:05.743Z,9.32
2022-11-08T20:21:32.600Z,10.27
2022-11-08T20:23:59.057Z,6.60
2022-11-08T20:26:27.071Z,7.20
2022-11-08T20:28:57.415Z,6.05
2022-11-08T20:31:25.458Z,7.10
2022-11-08T20:33:53.874Z,7.38
2022-11-08T20:36:22.981Z,6.63
2022-11-08T20:38:50.361Z,7.63
2022-11-08T20:41:18.105Z,6.93
2022-11-08T20:43:47.002Z,7.45
2022-11-08T20:46:16.596Z,8.68
2022-11-08T20:48:44.853Z,7.57
2022-11-08T20:51:13.712Z,8.75
2022-11-08T20:53:40.345Z,7.97
2022-11-08T20:56:18.582Z,8.93
2022-11-08T20:58:46.916Z,8.25
2022-11-08T21:01:16.801Z,11.00
2022-11-08T21:03:45.636Z,9.07
2022-11-08T21:06:18.126Z,10.20
2022-11-08T21:11:34.492Z,8.85
2022-11-08T21:14:01.783Z,9.10
2022-11-08T21:16:31.951Z,9.82
2022-11-08T21:19:05.197Z,11.00
2022-11-08T21:21:33.080Z,9.60
2022-11-08T21:23:59.938Z,7.75
2022-11-08T21:26:26.678Z,7.45
2022-11-08T21:28:54.170Z,8.32
2022-11-08T21:31:20.916Z,8.32
2022-11-08T21:33:47.701Z,8.75
2022-11-08T21:36:14.246Z,8.73
2022-11-08T21:38:41.085Z,8.95
2022-11-08T21:41:09.819Z,11.82
2022-11-08T21:43:38.619Z,11.15
2022-11-08T21:46:16.900Z,14.07
2022-11-08T21:48:43.793Z,10.90
2022-11-08T21:51:10.347Z,9.93
2022-11-08T21:53:45.121Z,9.02
2022-11-08T21:56:16.126Z,8.90
2022-11-08T21:58:42.624Z,10.35
2022-11-08T22:01:09.148Z,9.00
2022-11-08T22:03:35.946Z,9.88
2022-11-08T22:06:02.695Z,9.68
2022-11-08T22:08:29.208Z,10.18
2022-11-08T22:10:55.717Z,9.50
2022-11-08T22:13:22.373Z,12.68
2022-11-08T22:15:49.169Z,9.98
2022-11-08T22:18:19.798Z,9.15
2022-11-08T22:21:16.326Z,11.32
2022-11-08T22:23:42.808Z,9.32
2022-11-08T22:26:09.298Z,10.35
2022-11-08T22:28:35.822Z,10.07
2022-11-08T22:31:02.400Z,10.25
2022-11-08T22:33:28.937Z,12.18
2022-11-08T22:35:55.561Z,11.93
2022-11-08T22:38:22.341Z,14.50
2022-11-08T22:40:48.855Z,12.50
2022-11-08T22:43:15.482Z,12.68
2022-11-08T22:45:43.657Z,11.82
2022-11-08T22:48:10.666Z,10.38
2022-11-08T22:50:38.110Z,8.88
2022-11-08T22:53:05.016Z,7.43
2022-11-08T22:55:31.762Z,8.13
2022-11-08T22:57:58.221Z,8.25
2022-11-08T23:00:24.725Z,8.98
2022-11-08T23:02:51.894Z,8.18
2022-11-08T23:05:18.420Z,8.50
2022-11-08T23:07:44.894Z,8.60
2022-11-08T23:10:11.377Z,7.97
2022-11-08T23:12:56.740Z,9.57
2022-11-08T23:15:42.759Z,8.10
2022-11-08T23:18:09.487Z,7.88
2022-11-08T23:20:54.734Z,7.93
2022-11-08T23:23:39.486Z,9.40
2022-11-08T23:26:06.038Z,6.47
2022-11-08T23:28:50.874Z,6.60
2022-11-08T23:31:35.318Z,7.15
2022-11-08T23:34:02.897Z,6.00
2022-11-08T23:36:29.554Z,7.15
2022-11-08T23:38:57.000Z,7.28
2022-11-08T23:41:42.970Z,7.38
2022-11-08T23:44:24.927Z,8.38
2022-11-08T23:46:51.378Z,8.13
2022-11-08T23:49:17.865Z,8.98
2022-11-08T23:51:44.520Z,8.27
2022-11-08T23:54:11.231Z,8.52
2022-11-08T23:56:38.014Z,9.38
2022-11-08T23:59:04.570Z,8.43
